Terminal Aerodrome Forecast
Issued by NWS

Home | Current Version | Previous Version | Graphics & Text | Print | Product List | Glossary On
Versions: 1 2 3 4 5 6 7 8 9 10 11 12 13 14 15
236
FTUS43 KBIS 241728
TAFDIK
TAF
KDIK 241728Z 2418/2518 16029G39KT P6SM FEW120
     FM250100 18014G23KT P6SM VCSH OVC060
     FM250500 11007KT P6SM VCSH BKN070
     FM250600 VRB06KT P6SM BKN060
     FM251500 26020G28KT P6SM SCT110=

USA.gov is the U.S. government's official web portal to all federal, state and local government web resources and services.